Time;durP1;ratioP1;P1;durP2;ratioP2;P2;SDS_P1;SDS_P2;PMS_P1;PMS_P2;Temp;Humidity;BMP_temperature;BMP_pressure;BME280_temperature;BME280_humidity;BME280_pressure;Samples;Min_cycle;Max_cycle;Signal;HPM_P1;HPM_P2
2023/12/10 00:02:20;;;;;;;;;;;;;;;;;;137679;1272;22283;-80
2023/12/10 00:05:21;;;;;;;;;;;;;;;;;;137733;1272;22293;-80
2023/12/10 00:08:22;;;;;;;;;;;;;;;;;;137702;1272;22576;-80
2023/12/10 00:11:23;;;;;;;;;;;;;;;;;;137694;1272;22861;-80
2023/12/10 00:14:24;;;;;;;;;;;;;;;;;;137676;1272;22280;-80
2023/12/10 00:17:25;;;;;;;;;;;;;;;;;;137687;1265;22274;-80
2023/12/10 00:20:26;;;;;;;;;;;;;;;;;;137752;1272;22232;-80
2023/12/10 00:23:27;;;;;;;;;;;;;;;;;;137705;1272;22294;-80
2023/12/10 00:26:28;;;;;;;;;;;;;;;;;;137752;1272;22384;-80
2023/12/10 00:29:29;;;;;;;;;;;;;;;;;;137739;1272;22842;-80
2023/12/10 00:32:30;;;;;;;;;;;;;;;;;;137721;1272;22224;-80
2023/12/10 00:35:31;;;;;;;;;;;;;;;;;;137741;1272;22305;-80
2023/12/10 00:38:33;;;;;;;;;;;;;;;;;;137725;1272;22264;-80
2023/12/10 00:41:34;;;;;;;;;;;;;;;;;;137744;1272;22348;-79
2023/12/10 00:44:35;;;;;;;;;;;;;;;;;;137709;1272;22563;-79
2023/12/10 00:47:37;;;;;;;;;;;;;;;;;;137748;1272;22184;-78
2023/12/10 00:50:38;;;;;;;;;;;;;;;;;;137763;1272;22263;-79
2023/12/10 00:53:39;;;;;;;;;;;;;;;;;;137747;1272;22686;-79
2023/12/10 00:56:41;;;;;;;;;;;;;;;;;;137739;1272;22817;-79
2023/12/10 00:59:42;;;;;;;;;;;;;;;;;;137685;1272;22293;-79
2023/12/10 01:02:44;;;;;;;;;;;;;;;;;;137750;1272;22189;-80
2023/12/10 01:05:45;;;;;;;;;;;;;;;;;;137756;1272;22306;-79
2023/12/10 01:08:46;;;;;;;;;;;;;;;;;;137727;1272;22284;-80
2023/12/10 01:11:47;;;;;;;;;;;;;;;;;;137733;1272;22270;-80
2023/12/10 01:14:49;;;;;;;;;;;;;;;;;;137765;1272;22211;-80
2023/12/10 01:17:50;;;;;;;;;;;;;;;;;;137736;1272;22823;-79
2023/12/10 01:20:51;;;;;;;;;;;;;;;;;;137734;1272;22314;-79
2023/12/10 01:23:54;;;;;;;;;;;;;;;;;;137694;1272;22355;-80
2023/12/10 01:26:55;;;;;;;;;;;;;;;;;;137666;1272;22397;-79
2023/12/10 01:29:56;;;;;;;;;;;;;;;;;;137637;1272;22310;-79
2023/12/10 01:32:57;;;;;;;;;;;;;;;;;;137715;1272;22271;-79
2023/12/10 01:35:58;;;;;;;;;;;;;;;;;;137765;1272;22298;-80
2023/12/10 01:38:59;;;;;;;;;;;;;;;;;;137752;1272;22318;-79
2023/12/10 01:42:01;;;;;;;;;;;;;;;;;;137736;1272;22762;-80
2023/12/10 01:45:03;;;;;;;;;;;;;;;;;;137720;1272;22839;-80
2023/12/10 01:48:05;;;;;;;;;;;;;;;;;;137705;1272;22718;-79
2023/12/10 01:51:08;;;;;;;;;;;;;;;;;;137767;1272;22210;-79
2023/12/10 01:54:09;;;;;;;;;;;;;;;;;;137734;1272;23008;-80
2023/12/10 01:57:10;;;;;;;;;;;;;;;;;;137750;1272;22230;-80
2023/12/10 02:00:12;;;;;;;;;;;;;;;;;;137731;1272;22625;-80
2023/12/10 02:03:14;;;;;;;;;;;;;;;;;;137731;1272;22319;-79
2023/12/10 02:06:15;;;;;;;;;;;;;;;;;;137754;1272;22706;-79
2023/12/10 02:09:18;;;;;;;;;;;;;;;;;;137743;1272;22334;-79
2023/12/10 02:12:19;;;;;;;;;;;;;;;;;;137725;1272;22177;-79
2023/12/10 02:15:20;;;;;;;;;;;;;;;;;;137757;1272;22273;-79
2023/12/10 02:18:21;;;;;;;;;;;;;;;;;;137739;1272;22273;-80
2023/12/10 02:21:22;;;;;;;;;;;;;;;;;;137738;1272;22307;-79
2023/12/10 02:24:23;;;;;;;;;;;;;;;;;;137700;1272;22439;-79
2023/12/10 02:27:26;;;;;;;;;;;;;;;;;;137722;1272;22649;-80
2023/12/10 02:30:28;;;;;;;;;;;;;;;;;;137704;1272;22765;-79
2023/12/10 02:33:29;;;;;;;;;;;;;;;;;;137721;1272;22292;-79
2023/12/10 02:36:30;;;;;;;;;;;;;;;;;;137759;1272;22885;-79
2023/12/10 02:39:31;;;;;;;;;;;;;;;;;;137718;1272;22277;-79
2023/12/10 02:42:35;;;;;;;;;;;;;;;;;;137735;1272;22186;-79
2023/12/10 02:45:36;;;;;;;;;;;;;;;;;;137726;1272;22220;-79
2023/12/10 02:48:37;;;;;;;;;;;;;;;;;;137693;1272;22535;-79
2023/12/10 02:51:38;;;;;;;;;;;;;;;;;;137702;1272;22676;-79
2023/12/10 02:54:39;;;;;;;;;;;;;;;;;;137685;1272;22378;-79
2023/12/10 02:57:41;;;;;;;;;;;;;;;;;;137682;1272;22208;-79
2023/12/10 03:00:42;;;;;;;;;;;;;;;;;;137663;1272;22198;-79
2023/12/10 03:03:43;;;;;;;;;;;;;;;;;;137717;1271;23130;-79
2023/12/10 03:06:44;;;;;;;;;;;;;;;;;;137728;1272;22290;-78
2023/12/10 03:09:45;;;;;;;;;;;;;;;;;;137666;1272;22775;-79
2023/12/10 03:12:46;;;;;;;;;;;;;;;;;;137722;1272;22246;-78
2023/12/10 03:15:47;;;;;;;;;;;;;;;;;;137753;1272;22774;-79
2023/12/10 03:18:48;;;;;;;;;;;;;;;;;;137683;1272;22301;-78
2023/12/10 03:21:49;;;;;;;;;;;;;;;;;;137721;1272;22312;-78
2023/12/10 03:24:53;;;;;;;;;;;;;;;;;;137736;1272;22392;-78
2023/12/10 03:27:54;;;;;;;;;;;;;;;;;;137704;1272;22186;-78
2023/12/10 03:30:55;;;;;;;;;;;;;;;;;;137674;1272;22267;-78
2023/12/10 03:33:56;;;;;;;;;;;;;;;;;;137697;1272;22239;-78
2023/12/10 03:36:57;;;;;;;;;;;;;;;;;;137717;1272;22342;-79
2023/12/10 03:39:58;;;;;;;;;;;;;;;;;;137763;1272;22203;-79
2023/12/10 03:42:59;;;;;;;;;;;;;;;;;;137784;1272;22273;-78
2023/12/10 03:46:00;;;;;;;;;;;;;;;;;;137699;1272;22783;-79
2023/12/10 03:49:01;;;;;;;;;;;;;;;;;;137721;1272;22333;-78
2023/12/10 03:52:03;;;;;;;;;;;;;;;;;;137720;1272;22397;-78
2023/12/10 03:55:04;;;;;;;;;;;;;;;;;;137721;1272;22378;-78
2023/12/10 03:58:05;;;;;;;;;;;;;;;;;;137733;1272;22297;-78
2023/12/10 04:01:06;;;;;;;;;;;;;;;;;;137664;1272;22878;-78
2023/12/10 04:04:07;;;;;;;;;;;;;;;;;;137725;1272;22179;-78
2023/12/10 04:07:08;;;;;;;;;;;;;;;;;;137670;1272;22182;-78
2023/12/10 04:10:09;;;;;;;;;;;;;;;;;;137704;1272;22296;-78
2023/12/10 04:13:15;;;;;;;;;;;;;;;;;;137696;1272;22279;-77
2023/12/10 04:16:16;;;;;;;;;;;;;;;;;;137692;1272;22637;-78
2023/12/10 04:19:18;;;;;;;;;;;;;;;;;;137713;1272;22671;-77
2023/12/10 04:22:19;;;;;;;;;;;;;;;;;;137676;1272;22220;-78
2023/12/10 04:25:20;;;;;;;;;;;;;;;;;;137671;1272;22358;-77
2023/12/10 04:28:21;;;;;;;;;;;;;;;;;;137706;1272;22311;-77
2023/12/10 04:31:22;;;;;;;;;;;;;;;;;;137674;1272;22310;-77
2023/12/10 04:34:23;;;;;;;;;;;;;;;;;;137660;1272;22657;-77
2023/12/10 04:37:24;;;;;;;;;;;;;;;;;;137642;1272;22197;-77
2023/12/10 04:40:25;;;;;;;;;;;;;;;;;;137670;1272;22380;-77
2023/12/10 04:43:26;;;;;;;;;;;;;;;;;;137679;1272;22270;-77
2023/12/10 04:46:28;;;;;;;;;;;;;;;;;;137488;1272;200574;-77
2023/12/10 04:49:29;;;;;;;;;;;;;;;;;;137626;1272;22211;-78
2023/12/10 04:52:30;;;;;;;;;;;;;;;;;;137635;1272;22240;-77
2023/12/10 04:55:31;;;;;;;;;;;;;;;;;;137659;1272;22377;-77
2023/12/10 04:58:32;;;;;;;;;;;;;;;;;;137670;1272;22310;-77
2023/12/10 05:01:33;;;;;;;;;;;;;;;;;;137689;1272;22178;-78
2023/12/10 05:04:35;;;;;;;;;;;;;;;;;;137711;1272;22789;-78
2023/12/10 05:07:36;;;;;;;;;;;;;;;;;;137690;1272;22188;-77
2023/12/10 05:10:37;;;;;;;;;;;;;;;;;;137695;1272;22192;-77
2023/12/10 05:13:39;;;;;;;;;;;;;;;;;;137709;1272;22257;-79
2023/12/10 05:16:40;;;;;;;;;;;;;;;;;;137649;1272;22263;-78
2023/12/10 05:19:41;;;;;;;;;;;;;;;;;;137665;1272;22216;-77
2023/12/10 05:22:42;;;;;;;;;;;;;;;;;;137667;1272;22173;-77
2023/12/10 05:25:43;;;;;;;;;;;;;;;;;;137688;1272;22454;-77
2023/12/10 05:28:44;;;;;;;;;;;;;;;;;;137690;1272;22172;-77
2023/12/10 05:31:45;;;;;;;;;;;;;;;;;;137725;1272;22254;-77
2023/12/10 05:34:46;;;;;;;;;;;;;;;;;;137707;1268;22252;-77
2023/12/10 05:37:47;;;;;;;;;;;;;;;;;;137663;1272;22196;-77
2023/12/10 05:40:48;;;;;;;;;;;;;;;;;;137680;1272;22168;-77
2023/12/10 05:43:49;;;;;;;;;;;;;;;;;;137737;1272;22206;-78
2023/12/10 05:46:51;;;;;;;;;;;;;;;;;;137711;1272;22279;-78
2023/12/10 05:49:54;;;;;;;;;;;;;;;;;;137711;1272;22321;-78
2023/12/10 05:52:55;;;;;;;;;;;;;;;;;;137676;1272;22323;-81
2023/12/10 05:55:56;;;;;;;;;;;;;;;;;;137647;1272;22397;-81
2023/12/10 05:59:01;;;;;;;;;;;;;;;;;;137646;1272;22175;-80
2023/12/10 06:02:04;;;;;;;;;;;;;;;;;;137666;1272;22179;-81
2023/12/10 06:05:05;;;;;;;;;;;;;;;;;;137694;1272;22169;-82
2023/12/10 06:08:09;;;;;;;;;;;;;;;;;;137734;1268;22675;-81
2023/12/10 06:11:10;;;;;;;;;;;;;;;;;;137713;1272;22257;-80
2023/12/10 06:14:11;;;;;;;;;;;;;;;;;;137709;1272;22266;-81
2023/12/10 06:17:13;;;;;;;;;;;;;;;;;;137719;1272;22388;-79
2023/12/10 06:20:14;;;;;;;;;;;;;;;;;;137702;1272;22165;-78
2023/12/10 06:23:15;;;;;;;;;;;;;;;;;;137682;1268;22196;-78
2023/12/10 06:26:23;;;;;;;;;;;;;;;;;;137685;1268;22446;-81
2023/12/10 06:29:24;;;;;;;;;;;;;;;;;;137735;1272;22264;-81
2023/12/10 06:32:26;;;;;;;;;;;;;;;;;;137740;1272;22202;-82
2023/12/10 06:35:27;;;;;;;;;;;;;;;;;;137696;1268;22180;-82
2023/12/10 06:38:28;;;;;;;;;;;;;;;;;;137688;1272;22287;-81
2023/12/10 06:41:29;;;;;;;;;;;;;;;;;;137747;1272;22222;-82
2023/12/10 06:44:31;;;;;;;;;;;;;;;;;;137701;1272;22181;-82
2023/12/10 06:47:33;;;;;;;;;;;;;;;;;;137689;1272;22194;-81
2023/12/10 06:50:34;;;;;;;;;;;;;;;;;;137735;1272;22188;-82
2023/12/10 06:53:35;;;;;;;;;;;;;;;;;;137711;1272;22683;-82
2023/12/10 06:56:39;;;;;;;;;;;;;;;;;;137667;1272;22841;-82
2023/12/10 06:59:40;;;;;;;;;;;;;;;;;;137706;1272;22301;-82
2023/12/10 07:02:42;;;;;;;;;;;;;;;;;;137732;1272;22274;-81
2023/12/10 07:05:44;;;;;;;;;;;;;;;;;;137692;1272;22273;-82
2023/12/10 07:08:45;;;;;;;;;;;;;;;;;;137704;1268;22194;-82
2023/12/10 07:11:47;;;;;;;;;;;;;;;;;;137676;1272;22326;-82
2023/12/10 07:14:48;;;;;;;;;;;;;;;;;;137703;1272;22274;-82
2023/12/10 07:17:49;;;;;;;;;;;;;;;;;;137693;1272;22313;-82
2023/12/10 07:20:50;;;;;;;;;;;;;;;;;;137717;1272;22342;-81
2023/12/10 07:23:51;;;;;;;;;;;;;;;;;;137670;1272;22836;-82
2023/12/10 07:26:52;;;;;;;;;;;;;;;;;;137685;1272;22389;-82
2023/12/10 07:29:53;;;;;;;;;;;;;;;;;;137737;1272;22288;-82
2023/12/10 07:32:56;;;;;;;;;;;;;;;;;;137727;1272;22670;-82
2023/12/10 07:35:57;;;;;;;;;;;;;;;;;;137650;1272;22269;-81
2023/12/10 07:38:58;;;;;;;;;;;;;;;;;;137712;1265;22350;-82
2023/12/10 07:42:01;;;;;;;;;;;;;;;;;;137708;1272;22267;-81
2023/12/10 07:45:03;;;;;;;;;;;;;;;;;;137692;1272;22229;-81
2023/12/10 07:48:04;;;;;;;;;;;;;;;;;;137682;1272;22715;-81
2023/12/10 07:51:05;;;;;;;;;;;;;;;;;;137669;1272;22253;-81
2023/12/10 07:54:07;;;;;;;;;;;;;;;;;;137682;1272;22920;-81
2023/12/10 07:57:08;;;;;;;;;;;;;;;;;;137702;1272;22220;-81
2023/12/10 08:00:10;;;;;;;;;;;;;;;;;;137716;1272;22259;-81
2023/12/10 08:03:11;;;;;;;;;;;;;;;;;;137705;1272;22639;-81
2023/12/10 08:06:12;;;;;;;;;;;;;;;;;;137703;1272;22275;-81
2023/12/10 08:09:14;;;;;;;;;;;;;;;;;;137711;1261;22293;-81
2023/12/10 08:12:15;;;;;;;;;;;;;;;;;;137704;1272;22335;-80
2023/12/10 08:15:16;;;;;;;;;;;;;;;;;;137678;1272;22223;-81
2023/12/10 08:18:17;;;;;;;;;;;;;;;;;;137670;1272;22269;-82
2023/12/10 08:21:18;;;;;;;;;;;;;;;;;;137686;1272;22375;-81
2023/12/10 08:24:20;;;;;;;;;;;;;;;;;;137669;1272;22498;-81
2023/12/10 08:27:21;;;;;;;;;;;;;;;;;;137681;1272;22382;-81
2023/12/10 08:30:22;;;;;;;;;;;;;;;;;;137708;1272;22186;-81
2023/12/10 08:33:23;;;;;;;;;;;;;;;;;;137630;1272;22175;-81
2023/12/10 08:36:24;;;;;;;;;;;;;;;;;;137693;1272;22287;-81
2023/12/10 08:39:25;;;;;;;;;;;;;;;;;;137683;1272;22277;-82
2023/12/10 08:42:27;;;;;;;;;;;;;;;;;;137696;1272;22795;-81
2023/12/10 08:45:28;;;;;;;;;;;;;;;;;;137683;1272;22733;-82
2023/12/10 08:48:30;;;;;;;;;;;;;;;;;;137697;1272;22278;-81
2023/12/10 08:51:33;;;;;;;;;;;;;;;;;;137680;1272;22243;-82
2023/12/10 08:54:34;;;;;;;;;;;;;;;;;;137693;1272;22882;-81
2023/12/10 08:57:35;;;;;;;;;;;;;;;;;;137690;1272;22176;-82
2023/12/10 09:00:36;;;;;;;;;;;;;;;;;;137658;1272;22677;-81
2023/12/10 09:03:38;;;;;;;;;;;;;;;;;;137701;1272;22300;-82
2023/12/10 09:06:39;;;;;;;;;;;;;;;;;;137879;1262;22162;-81
2023/12/10 09:09:40;;;;;;;;;;;;;;;;;;137697;1272;22818;-82
2023/12/10 09:12:41;;;;;;;;;;;;;;;;;;137679;1272;22315;-82
2023/12/10 09:15:43;;;;;;;;;;;;;;;;;;137715;1272;22335;-82
2023/12/10 09:18:44;;;;;;;;;;;;;;;;;;137731;1272;22614;-82
2023/12/10 09:21:45;;;;;;;;;;;;;;;;;;137703;1272;22289;-82
2023/12/10 09:24:47;;;;;;;;;;;;;;;;;;137731;1272;22893;-82
2023/12/10 09:27:48;;;;;;;;;;;;;;;;;;137709;1272;22227;-82
2023/12/10 09:30:49;;;;;;;;;;;;;;;;;;137701;1272;22287;-81
2023/12/10 09:33:50;;;;;;;;;;;;;;;;;;137699;1272;22340;-81
2023/12/10 09:36:51;;;;;;;;;;;;;;;;;;137696;1272;22184;-81
2023/12/10 09:39:52;;;;;;;;;;;;;;;;;;137653;1272;22381;-81
2023/12/10 09:42:53;;;;;;;;;;;;;;;;;;137702;1272;22294;-82
2023/12/10 09:45:54;;;;;;;;;;;;;;;;;;137689;1272;22889;-82
2023/12/10 09:48:55;;;;;;;;;;;;;;;;;;137705;1272;22176;-83
2023/12/10 09:51:56;;;;;;;;;;;;;;;;;;137684;1272;22692;-82
2023/12/10 09:54:57;;;;;;;;;;;;;;;;;;137671;1272;22401;-82
2023/12/10 09:58:01;;;;;;;;;;;;;;;;;;137715;1272;22265;-82
2023/12/10 10:01:06;;;;;;;;;;;;;;;;;;137695;1272;22356;-82
2023/12/10 10:04:07;;;;;;;;;;;;;;;;;;137717;1272;22211;-82
2023/12/10 10:07:08;;;;;;;;;;;;;;;;;;137698;1272;22277;-83
2023/12/10 10:10:11;;;;;;;;;;;;;;;;;;137707;1272;22287;-82
2023/12/10 10:13:15;;;;;;;;;;;;;;;;;;137697;1272;22262;-83
2023/12/10 10:16:16;;;;;;;;;;;;;;;;;;137779;1272;22621;-82
2023/12/10 10:19:17;;;;;;;;;;;;;;;;;;137726;1272;22281;-82
2023/12/10 10:25:55;;;;;;;;;;;;;;;;;;133999;1304;544236;-83
2023/12/10 10:28:58;;;;;;;;;;;;;;;;;;136364;1287;23015;-79
2023/12/10 10:32:00;;;;;;;;;;;;;;;;;;136215;1287;22554;-80
2023/12/10 10:35:03;;;;;;;;;;;;;;;;;;136369;1287;22532;-80
2023/12/10 10:38:05;;;;;;;;;;;;;;;;;;135754;1285;108943;-80
2023/12/10 10:41:08;;;;;;;;;;;;;;;;;;136003;1285;22552;-81
2023/12/10 10:44:10;;;;;;;;;;;;;;;;;;137135;1276;22509;-81
2023/12/10 10:47:13;;;;;;;;;;;;;;;;;;136631;1273;22534;-81
2023/12/10 10:50:15;;;;;;;;;;;;;;;;;;136672;1276;22557;-79
2023/12/10 10:53:18;;;;;;;;;;;;;;;;;;137354;1276;22571;-80
2023/12/10 10:56:20;;;;;;;;;;;;;;;;;;137104;1276;22969;-81
2023/12/10 10:59:23;;;;;;;;;;;;;;;;;;136563;1276;22559;-80
2023/12/10 11:02:25;;;;;;;;;;;;;;;;;;137252;1276;22515;-81
2023/12/10 11:05:27;;;;;;;;;;;;;;;;;;136870;1276;22502;-82
2023/12/10 11:08:30;;;;;;;;;;;;;;;;;;136740;1276;22502;-81
2023/12/10 11:11:32;;;;;;;;;;;;;;;;;;137333;1272;22302;-81
2023/12/10 11:14:35;;;;;;;;;;;;;;;;;;137172;1276;22521;-81
2023/12/10 11:17:37;;;;;;;;;;;;;;;;;;136718;1276;22508;-81
2023/12/10 11:20:40;;;;;;;;;;;;;;;;;;136960;1276;22613;-81
2023/12/10 11:23:42;;;;;;;;;;;;;;;;;;137276;1276;22546;-82
2023/12/10 11:26:45;;;;;;;;;;;;;;;;;;136875;1276;22558;-81
2023/12/10 11:29:47;;;;;;;;;;;;;;;;;;136789;1276;22695;-81
2023/12/10 11:32:50;;;;;;;;;;;;;;;;;;137305;1276;22553;-81
2023/12/10 11:35:52;;;;;;;;;;;;;;;;;;136897;1276;22507;-81
2023/12/10 11:38:55;;;;;;;;;;;;;;;;;;136698;1276;22522;-81
2023/12/10 11:41:57;;;;;;;;;;;;;;;;;;137086;1276;22517;-81
2023/12/10 11:45:00;;;;;;;;;;;;;;;;;;137102;1276;22513;-82
2023/12/10 11:48:04;;;;;;;;;;;;;;;;;;136791;1276;22525;-81
2023/12/10 11:51:06;;;;;;;;;;;;;;;;;;136859;1276;22550;-81
2023/12/10 11:54:09;;;;;;;;;;;;;;;;;;137367;1276;22927;-81
2023/12/10 11:57:14;;;;;;;;;;;;;;;;;;136603;1276;22860;-81
2023/12/10 12:00:17;;;;;;;;;;;;;;;;;;136698;1272;22489;-82
2023/12/10 12:03:19;;;;;;;;;;;;;;;;;;137155;1276;22531;-82
2023/12/10 12:06:22;;;;;;;;;;;;;;;;;;137000;1276;22513;-82
2023/12/10 12:09:25;;;;;;;;;;;;;;;;;;136705;1276;22520;-82
2023/12/10 12:12:28;;;;;;;;;;;;;;;;;;136817;1276;22520;-81
2023/12/10 12:15:31;;;;;;;;;;;;;;;;;;137206;1276;23359;-81
2023/12/10 12:18:33;;;;;;;;;;;;;;;;;;136609;1276;22612;-80
2023/12/10 12:21:36;;;;;;;;;;;;;;;;;;136772;1276;22523;-81
2023/12/10 12:24:39;;;;;;;;;;;;;;;;;;137274;1276;22517;-81
2023/12/10 12:27:43;;;;;;;;;;;;;;;;;;136787;1276;22472;-82
2023/12/10 12:30:45;;;;;;;;;;;;;;;;;;136755;1276;22548;-82
2023/12/10 12:33:48;;;;;;;;;;;;;;;;;;136964;1276;22525;-82
2023/12/10 12:36:51;;;;;;;;;;;;;;;;;;136710;1276;22534;-81
2023/12/10 12:39:53;;;;;;;;;;;;;;;;;;137044;1276;22538;-79
2023/12/10 12:42:56;;;;;;;;;;;;;;;;;;136906;1276;24295;-81
2023/12/10 12:45:58;;;;;;;;;;;;;;;;;;137130;1276;22628;-80
2023/12/10 12:49:01;;;;;;;;;;;;;;;;;;137241;1276;22509;-80
2023/12/10 12:52:05;;;;;;;;;;;;;;;;;;136692;1276;22556;-81
2023/12/10 12:55:10;;;;;;;;;;;;;;;;;;137203;1276;22535;-81
2023/12/10 12:58:12;;;;;;;;;;;;;;;;;;136772;1276;22573;-83
2023/12/10 13:01:15;;;;;;;;;;;;;;;;;;136650;1276;22569;-83
2023/12/10 13:04:17;;;;;;;;;;;;;;;;;;137001;1273;22548;-85
2023/12/10 13:07:20;;;;;;;;;;;;;;;;;;136961;1276;22515;-83
2023/12/10 13:10:22;;;;;;;;;;;;;;;;;;136964;1273;22956;-84
2023/12/10 13:13:25;;;;;;;;;;;;;;;;;;137013;1268;22525;-85
2023/12/10 13:16:28;;;;;;;;;;;;;;;;;;137227;1273;22510;-84
2023/12/10 13:19:30;;;;;;;;;;;;;;;;;;136981;1273;22589;-83
2023/12/10 13:22:33;;;;;;;;;;;;;;;;;;136959;1273;22542;-83
2023/12/10 13:25:35;;;;;;;;;;;;;;;;;;137555;1273;22503;-83
2023/12/10 13:28:38;;;;;;;;;;;;;;;;;;137055;1273;22500;-83
2023/12/10 13:31:40;;;;;;;;;;;;;;;;;;136986;1273;22540;-83
2023/12/10 13:34:43;;;;;;;;;;;;;;;;;;137331;1273;22545;-84
2023/12/10 13:37:45;;;;;;;;;;;;;;;;;;137158;1273;22530;-82
2023/12/10 13:40:48;;;;;;;;;;;;;;;;;;136961;1273;23158;-81
2023/12/10 13:43:51;;;;;;;;;;;;;;;;;;137098;1273;22531;-84
2023/12/10 13:46:53;;;;;;;;;;;;;;;;;;137383;1273;22532;-83
2023/12/10 13:49:56;;;;;;;;;;;;;;;;;;136876;1273;22506;-82
2023/12/10 13:53:01;;;;;;;;;;;;;;;;;;136885;1273;22535;-82
2023/12/10 13:56:03;;;;;;;;;;;;;;;;;;137490;1273;22510;-82
2023/12/10 13:59:06;;;;;;;;;;;;;;;;;;136810;1273;22510;-81
2023/12/10 14:02:08;;;;;;;;;;;;;;;;;;136949;1273;22505;-84
2023/12/10 14:05:13;;;;;;;;;;;;;;;;;;137266;1273;22553;-84
2023/12/10 14:08:15;;;;;;;;;;;;;;;;;;137167;1270;22985;-82
2023/12/10 14:11:18;;;;;;;;;;;;;;;;;;136824;1273;22555;-83
2023/12/10 14:14:20;;;;;;;;;;;;;;;;;;137043;1273;22521;-84
2023/12/10 14:17:23;;;;;;;;;;;;;;;;;;137400;1273;22661;-82
2023/12/10 14:20:25;;;;;;;;;;;;;;;;;;136911;1273;22543;-83
2023/12/10 14:23:28;;;;;;;;;;;;;;;;;;136840;1273;22541;-82
2023/12/10 14:26:31;;;;;;;;;;;;;;;;;;137546;1273;22350;-83
2023/12/10 14:29:33;;;;;;;;;;;;;;;;;;136931;1273;22928;-82
2023/12/10 14:32:35;;;;;;;;;;;;;;;;;;136912;1273;22505;-82
2023/12/10 14:35:40;;;;;;;;;;;;;;;;;;137287;1273;22570;-84
2023/12/10 14:38:43;;;;;;;;;;;;;;;;;;137198;1273;22511;-82
2023/12/10 14:41:45;;;;;;;;;;;;;;;;;;136857;1273;22554;-83
2023/12/10 14:44:49;;;;;;;;;;;;;;;;;;136904;1273;22639;-85
2023/12/10 14:47:51;;;;;;;;;;;;;;;;;;137526;1273;22487;-84
2023/12/10 14:50:54;;;;;;;;;;;;;;;;;;136963;1273;22513;-83
2023/12/10 14:53:56;;;;;;;;;;;;;;;;;;136933;1273;23050;-84
2023/12/10 14:56:59;;;;;;;;;;;;;;;;;;137393;1273;22517;-83
2023/12/10 15:00:01;;;;;;;;;;;;;;;;;;137013;1273;22512;-82
2023/12/10 15:03:04;;;;;;;;;;;;;;;;;;136818;1273;22498;-83
2023/12/10 15:06:07;;;;;;;;;;;;;;;;;;137332;1273;25260;-84
2023/12/10 15:09:10;;;;;;;;;;;;;;;;;;137061;1273;24139;-84
2023/12/10 15:12:13;;;;;;;;;;;;;;;;;;136924;1273;22575;-86
2023/12/10 15:15:18;;;;;;;;;;;;;;;;;;136981;1273;24182;-87
2023/12/10 15:18:22;;;;;;;;;;;;;;;;;;137509;1273;22499;-82
2023/12/10 15:21:25;;;;;;;;;;;;;;;;;;136917;1273;22534;-85
2023/12/10 15:24:28;;;;;;;;;;;;;;;;;;136929;1270;22559;-83
2023/12/10 15:27:30;;;;;;;;;;;;;;;;;;137504;1273;22503;-85
2023/12/10 15:30:33;;;;;;;;;;;;;;;;;;137045;1273;24324;-85
2023/12/10 15:33:35;;;;;;;;;;;;;;;;;;136988;1269;22541;-82
2023/12/10 15:36:38;;;;;;;;;;;;;;;;;;137452;1273;22995;-87
2023/12/10 15:39:40;;;;;;;;;;;;;;;;;;137074;1273;22507;-85
2023/12/10 15:42:44;;;;;;;;;;;;;;;;;;137105;1273;22499;-80
2023/12/10 15:45:46;;;;;;;;;;;;;;;;;;137034;1273;22532;-83
2023/12/10 15:48:49;;;;;;;;;;;;;;;;;;137276;1273;22498;-83
2023/12/10 15:51:52;;;;;;;;;;;;;;;;;;137065;1273;22543;-82
2023/12/10 15:54:54;;;;;;;;;;;;;;;;;;137037;1273;22518;-82
2023/12/10 15:57:57;;;;;;;;;;;;;;;;;;137385;1273;22552;-83
2023/12/10 16:01:01;;;;;;;;;;;;;;;;;;137077;1273;22508;-82
2023/12/10 16:04:04;;;;;;;;;;;;;;;;;;136949;1273;22530;-83
2023/12/10 16:07:07;;;;;;;;;;;;;;;;;;137413;1273;22563;-84
2023/12/10 16:10:09;;;;;;;;;;;;;;;;;;137111;1273;22517;-83
2023/12/10 16:13:12;;;;;;;;;;;;;;;;;;137034;1273;22500;-83
2023/12/10 16:16:14;;;;;;;;;;;;;;;;;;137168;1273;22531;-86
2023/12/10 16:19:17;;;;;;;;;;;;;;;;;;137415;1273;22951;-84
2023/12/10 16:22:19;;;;;;;;;;;;;;;;;;137009;1273;22543;-84
2023/12/10 16:25:22;;;;;;;;;;;;;;;;;;137103;1273;22584;-82
2023/12/10 16:28:27;;;;;;;;;;;;;;;;;;137441;1273;22568;-83
2023/12/10 16:31:30;;;;;;;;;;;;;;;;;;137073;1273;22506;-84
2023/12/10 16:34:33;;;;;;;;;;;;;;;;;;137053;1273;22560;-85
2023/12/10 16:37:35;;;;;;;;;;;;;;;;;;137372;1273;22940;-84
2023/12/10 16:40:38;;;;;;;;;;;;;;;;;;136986;1273;22515;-83
2023/12/10 16:43:40;;;;;;;;;;;;;;;;;;136983;1273;23096;-83
2023/12/10 16:46:43;;;;;;;;;;;;;;;;;;137289;1273;23255;-86
2023/12/10 16:49:45;;;;;;;;;;;;;;;;;;137061;1273;22515;-84
2023/12/10 16:52:47;;;;;;;;;;;;;;;;;;136955;1273;22510;-84
2023/12/10 16:55:52;;;;;;;;;;;;;;;;;;137101;1273;22624;-87
2023/12/10 16:58:55;;;;;;;;;;;;;;;;;;137471;1273;23459;-83
2023/12/10 17:01:57;;;;;;;;;;;;;;;;;;136998;1273;22552;-84
2023/12/10 17:05:01;;;;;;;;;;;;;;;;;;136990;1273;23013;-84
2023/12/10 17:08:03;;;;;;;;;;;;;;;;;;137505;1273;22779;-82
2023/12/10 17:11:06;;;;;;;;;;;;;;;;;;137188;1273;22508;-85
2023/12/10 17:14:08;;;;;;;;;;;;;;;;;;137066;1273;22569;-84
2023/12/10 17:17:11;;;;;;;;;;;;;;;;;;137406;1273;23280;-85
2023/12/10 17:20:13;;;;;;;;;;;;;;;;;;137283;1273;22907;-83
2023/12/10 17:23:16;;;;;;;;;;;;;;;;;;137081;1273;22608;-83
2023/12/10 17:26:19;;;;;;;;;;;;;;;;;;137340;1261;22531;-83
2023/12/10 17:29:21;;;;;;;;;;;;;;;;;;137625;1272;22498;-83
2023/12/10 17:32:24;;;;;;;;;;;;;;;;;;137310;1272;22950;-83
2023/12/10 17:35:27;;;;;;;;;;;;;;;;;;137241;1269;23088;-83
2023/12/10 17:38:29;;;;;;;;;;;;;;;;;;137609;1272;22495;-83
2023/12/10 17:41:32;;;;;;;;;;;;;;;;;;137307;1272;22489;-83
2023/12/10 17:44:35;;;;;;;;;;;;;;;;;;137237;1272;22534;-84
2023/12/10 17:47:37;;;;;;;;;;;;;;;;;;137526;1272;22612;-87
2023/12/10 17:50:42;;;;;;;;;;;;;;;;;;137319;1272;22502;-85
2023/12/10 17:53:45;;;;;;;;;;;;;;;;;;137322;1272;22925;-85
2023/12/10 17:56:48;;;;;;;;;;;;;;;;;;137335;1272;22538;-84
2023/12/10 17:59:53;;;;;;;;;;;;;;;;;;137661;1272;22482;-83
2023/12/10 18:02:56;;;;;;;;;;;;;;;;;;137171;1272;23342;-83
2023/12/10 18:06:01;;;;;;;;;;;;;;;;;;137305;1272;22597;-83
2023/12/10 18:09:04;;;;;;;;;;;;;;;;;;137687;1272;22319;-83
2023/12/10 18:12:08;;;;;;;;;;;;;;;;;;137152;1272;22989;-83
2023/12/10 18:15:12;;;;;;;;;;;;;;;;;;137064;1272;22505;-83
2023/12/10 18:18:14;;;;;;;;;;;;;;;;;;137386;1272;25905;-84
2023/12/10 18:21:17;;;;;;;;;;;;;;;;;;137501;1272;22555;-83
2023/12/10 18:24:19;;;;;;;;;;;;;;;;;;137300;1272;23614;-83
2023/12/10 18:27:22;;;;;;;;;;;;;;;;;;137298;1272;22511;-83
2023/12/10 18:30:28;;;;;;;;;;;;;;;;;;137618;1272;22549;-84
2023/12/10 18:33:30;;;;;;;;;;;;;;;;;;137311;1272;22475;-83
2023/12/10 18:36:33;;;;;;;;;;;;;;;;;;137201;1272;22577;-83
2023/12/10 18:39:36;;;;;;;;;;;;;;;;;;137729;1272;22557;-83
2023/12/10 18:42:38;;;;;;;;;;;;;;;;;;137231;1272;23046;-83
2023/12/10 18:45:42;;;;;;;;;;;;;;;;;;137233;1272;22526;-82
2023/12/10 18:48:45;;;;;;;;;;;;;;;;;;137284;1272;22541;-83
2023/12/10 18:51:48;;;;;;;;;;;;;;;;;;137450;1272;22565;-83
2023/12/10 18:54:51;;;;;;;;;;;;;;;;;;137197;1272;22540;-84
2023/12/10 18:57:53;;;;;;;;;;;;;;;;;;137232;1272;22631;-82
2023/12/10 19:00:58;;;;;;;;;;;;;;;;;;137574;1272;22510;-83
2023/12/10 19:04:01;;;;;;;;;;;;;;;;;;137289;1272;22525;-83
2023/12/10 19:07:03;;;;;;;;;;;;;;;;;;137387;1272;22520;-82
2023/12/10 19:10:06;;;;;;;;;;;;;;;;;;137489;1272;22546;-83
2023/12/10 19:13:08;;;;;;;;;;;;;;;;;;137219;1272;22571;-83
2023/12/10 19:16:11;;;;;;;;;;;;;;;;;;137254;1272;22501;-83
2023/12/10 19:19:13;;;;;;;;;;;;;;;;;;137540;1272;22533;-84
2023/12/10 19:22:16;;;;;;;;;;;;;;;;;;137388;1272;22481;-84
2023/12/10 19:25:18;;;;;;;;;;;;;;;;;;137335;1272;22505;-83
2023/12/10 19:28:21;;;;;;;;;;;;;;;;;;137328;1272;22531;-83
2023/12/10 19:31:25;;;;;;;;;;;;;;;;;;137580;1272;22998;-84
2023/12/10 19:34:27;;;;;;;;;;;;;;;;;;137356;1272;22509;-83
2023/12/10 19:37:30;;;;;;;;;;;;;;;;;;137175;1272;22536;-84
2023/12/10 19:40:32;;;;;;;;;;;;;;;;;;137543;1272;22523;-85
2023/12/10 19:43:35;;;;;;;;;;;;;;;;;;137429;1272;22476;-84
2023/12/10 19:46:37;;;;;;;;;;;;;;;;;;137399;1272;22524;-83
2023/12/10 19:49:40;;;;;;;;;;;;;;;;;;137403;1272;22488;-85
2023/12/10 19:52:42;;;;;;;;;;;;;;;;;;137238;1272;22586;-84
2023/12/10 19:55:45;;;;;;;;;;;;;;;;;;137258;1272;22583;-84
2023/12/10 19:58:50;;;;;;;;;;;;;;;;;;137632;1272;22545;-83
2023/12/10 20:01:52;;;;;;;;;;;;;;;;;;137088;1272;22502;-84
2023/12/10 20:04:57;;;;;;;;;;;;;;;;;;137127;1272;22564;-83
2023/12/10 20:07:59;;;;;;;;;;;;;;;;;;137470;1272;22450;-84
2023/12/10 20:11:03;;;;;;;;;;;;;;;;;;137274;1272;22530;-83
2023/12/10 20:14:06;;;;;;;;;;;;;;;;;;137204;1272;22899;-83
2023/12/10 20:17:08;;;;;;;;;;;;;;;;;;137386;1272;22554;-83
2023/12/10 20:20:13;;;;;;;;;;;;;;;;;;137524;1272;22542;-84
2023/12/10 20:23:16;;;;;;;;;;;;;;;;;;137168;1272;22484;-83
2023/12/10 20:26:18;;;;;;;;;;;;;;;;;;137041;1272;24307;-83